F\v Tenia — FPMH — position and weather

sailwx.info

Track history (hours):
 
Tides and Currents Weather Stations Pressure Air Temp Water Temp Dewpoint Dewpoint Depression Visibility Wind Speed Wind Dir Waves Ship Positions

F\v Tenia

Last reported at 2015-Mar-23 20:31 UTC. Time now 2015-Mar-31 03:22 UTC.
Position N 44°44' W 002°05'.

Length 22 m; draft 4 m.

Type: Fishing. MMSI: 227575000.

Date/timePositionNaut miles runAvg speedWind from/ knotsBaromVisibWave heightAir tempDewpointWater temp
2015-Mar-23 20:31N 44°44' W 002°05'  
2015-Mar-19 11:33N 44°38' W 002°02'1 0.7
2015-Mar-19 10:20N 44°39' W 002°02'1 0.7
2015-Mar-19 08:19N 44°38' W 002°00'0 0.3
2015-Mar-19 07:29N 44°39' W 002°00'1 0.1
2015-Mar-18 19:16N 44°38' W 002°01'1 0.8
2015-Mar-18 18:33N 44°38' W 002°02'67 2.2
2015-Mar-17 12:31N 43°31' W 001°49'8 8.8
2015-Mar-17 11:33N 43°23' W 001°47'1 0.8
2015-Mar-17 10:33N 43°22' W 001°47'0 0.0
2015-Mar-17 09:33N 43°22' W 001°47'0 0.0
2015-Mar-17 08:33N 43°22' W 001°47'0 0.0
2015-Mar-17 07:33N 43°22' W 001°47'0 0.0
2015-Mar-17 06:33N 43°22' W 001°47'0 0.0
2015-Mar-17 05:33N 43°22' W 001°47'0 0.0
2015-Mar-17 04:33N 43°22' W 001°47'0 0.0
2015-Mar-17 03:33N 43°22' W 001°47'0 0.0
2015-Mar-17 02:33N 43°22' W 001°47'0 0.0
2015-Mar-17 01:33N 43°22' W 001°47'0 0.0
2015-Mar-17 00:33N 43°22' W 001°47'0 0.0
2015-Mar-16 23:33N 43°22' W 001°47'0 0.0
2015-Mar-16 22:33N 43°22' W 001°47'4 3.7
2015-Mar-16 21:33N 43°25' W 001°50'37 8.3
2015-Mar-16 17:04N 43°29' W 002°41'4 8.1
2015-Mar-16 16:32N 43°30' W 002°47'8 8.1
2015-Mar-16 15:33N 43°30' W 002°58'8 8.0
2015-Mar-16 14:33N 43°31' W 003°09'8 8.3
2015-Mar-16 13:33N 43°32' W 003°21'  
Track history (hours):
 
Tides and Currents Weather Stations Pressure Air Temp Water Temp Dewpoint Dewpoint Depression Visibility Wind Speed Wind Dir Waves Ship Positions

F\v Tenia

Last reported at 2015-Mar-23 20:31 UTC. Time now 2015-Mar-31 03:22 UTC.
Position N 44°44' W 002°05'.

Length 22 m; draft 4 m.

Type: Fishing. MMSI: 227575000.

Date/timePositionNaut miles runAvg speedWind from/ knotsBaromVisibWave heightAir tempDewpointWater temp
2015-Mar-23 20:31N 44°44' W 002°05'  
2015-Mar-19 11:33N 44°38' W 002°02'1 0.7
2015-Mar-19 10:20N 44°39' W 002°02'1 0.7
2015-Mar-19 08:19N 44°38' W 002°00'0 0.3
2015-Mar-19 07:29N 44°39' W 002°00'1 0.1
2015-Mar-18 19:16N 44°38' W 002°01'1 0.8
2015-Mar-18 18:33N 44°38' W 002°02'67 2.2
2015-Mar-17 12:31N 43°31' W 001°49'8 8.8
2015-Mar-17 11:33N 43°23' W 001°47'1 0.8
2015-Mar-17 10:33N 43°22' W 001°47'0 0.0
2015-Mar-17 09:33N 43°22' W 001°47'0 0.0
2015-Mar-17 08:33N 43°22' W 001°47'0 0.0
2015-Mar-17 07:33N 43°22' W 001°47'0 0.0
2015-Mar-17 06:33N 43°22' W 001°47'0 0.0
2015-Mar-17 05:33N 43°22' W 001°47'0 0.0
2015-Mar-17 04:33N 43°22' W 001°47'0 0.0
2015-Mar-17 03:33N 43°22' W 001°47'0 0.0
2015-Mar-17 02:33N 43°22' W 001°47'0 0.0
2015-Mar-17 01:33N 43°22' W 001°47'0 0.0
2015-Mar-17 00:33N 43°22' W 001°47'0 0.0
2015-Mar-16 23:33N 43°22' W 001°47'0 0.0
2015-Mar-16 22:33N 43°22' W 001°47'4 3.7
2015-Mar-16 21:33N 43°25' W 001°50'37 8.3
2015-Mar-16 17:04N 43°29' W 002°41'4 8.1
2015-Mar-16 16:32N 43°30' W 002°47'8 8.1
2015-Mar-16 15:33N 43°30' W 002°58'8 8.0
2015-Mar-16 14:33N 43°31' W 003°09'8 8.3
2015-Mar-16 13:33N 43°32' W 003°21'  

Dump ship's entire track history